createdAt,value
2017-10-01T00:00:52.935Z,10.90
2017-10-01T00:03:21.411Z,10.90
2017-10-01T00:05:49.903Z,10.90
2017-10-01T00:08:19.943Z,10.80
2017-10-01T00:10:49.288Z,10.90
2017-10-01T00:13:17.761Z,10.90
2017-10-01T00:15:46.244Z,10.90
2017-10-01T00:18:14.721Z,10.90
2017-10-01T00:20:43.208Z,10.90
2017-10-01T00:23:11.707Z,10.80
2017-10-01T00:25:40.171Z,10.90
2017-10-01T00:28:08.663Z,10.80
2017-10-01T00:30:37.118Z,10.80
2017-10-01T00:33:05.619Z,10.80
2017-10-01T00:35:34.087Z,10.80
2017-10-01T00:38:02.359Z,10.80
2017-10-01T00:40:31.596Z,10.80
2017-10-01T00:43:00.046Z,10.80
2017-10-01T00:45:28.523Z,10.80
2017-10-01T00:47:57.775Z,10.80
2017-10-01T00:50:26.355Z,10.70
2017-10-01T00:52:54.809Z,10.80
2017-10-01T00:55:22.591Z,10.70
2017-10-01T00:57:51.047Z,10.80
2017-10-01T01:00:18.840Z,10.80
2017-10-01T01:02:46.939Z,10.80
2017-10-01T01:05:15.495Z,10.70
2017-10-01T01:07:43.960Z,10.70
2017-10-01T01:10:12.422Z,10.70
2017-10-01T01:12:41.696Z,10.80
2017-10-01T01:15:10.180Z,10.70
2017-10-01T01:17:38.656Z,10.80
2017-10-01T01:20:07.124Z,10.70
2017-10-01T01:22:37.700Z,10.70
2017-10-01T01:25:06.576Z,10.60
2017-10-01T01:27:35.470Z,10.60
2017-10-01T01:30:03.953Z,10.60
2017-10-01T01:32:31.779Z,10.60
2017-10-01T01:35:00.227Z,10.60
2017-10-01T01:37:28.706Z,10.60
2017-10-01T01:39:57.170Z,10.60
2017-10-01T01:42:25.731Z,10.60
2017-10-01T01:44:54.196Z,10.60
2017-10-01T01:47:22.119Z,10.60
2017-10-01T01:49:51.167Z,10.70
2017-10-01T01:52:19.638Z,10.60
2017-10-01T01:54:48.103Z,10.80
2017-10-01T01:57:16.369Z,10.70
2017-10-01T01:59:44.837Z,10.70
2017-10-01T02:02:13.364Z,10.80
2017-10-01T02:04:41.526Z,10.70
2017-10-01T02:07:09.703Z,10.70
2017-10-01T02:09:38.340Z,10.80
2017-10-01T02:12:06.882Z,10.80
2017-10-01T02:14:35.347Z,10.80
2017-10-01T02:17:03.479Z,10.80
2017-10-01T02:19:32.015Z,10.90
2017-10-01T02:22:00.491Z,10.80
2017-10-01T02:24:28.953Z,10.80
2017-10-01T02:26:58.183Z,10.70
2017-10-01T02:29:26.298Z,10.70
2017-10-01T02:31:54.422Z,10.80
2017-10-01T02:34:22.524Z,10.80
2017-10-01T02:36:50.643Z,10.80
2017-10-01T02:39:19.871Z,10.70
2017-10-01T02:41:47.986Z,10.70
2017-10-01T02:44:16.123Z,10.70
2017-10-01T02:46:44.238Z,10.60
2017-10-01T02:49:12.171Z,10.60
2017-10-01T02:51:39.939Z,10.50
2017-10-01T02:54:08.843Z,10.50
2017-10-01T02:56:36.707Z,10.50
2017-10-01T02:59:05.951Z,10.50
2017-10-01T03:01:34.882Z,10.40
2017-10-01T03:04:02.746Z,10.40
2017-10-01T03:06:31.191Z,10.40
2017-10-01T03:09:00.438Z,10.40
2017-10-01T03:11:28.919Z,10.30
2017-10-01T03:13:56.689Z,10.30
2017-10-01T03:16:24.859Z,10.30
2017-10-01T03:18:53.310Z,10.30
2017-10-01T03:21:22.559Z,10.10
2017-10-01T03:23:50.668Z,10.10
2017-10-01T03:26:19.567Z,10.00
2017-10-01T03:28:48.443Z,10.00
2017-10-01T03:31:16.571Z,9.90
2017-10-01T03:33:44.315Z,10.00
2017-10-01T03:36:12.102Z,10.00
2017-10-01T03:38:40.218Z,10.00
2017-10-01T03:41:08.687Z,10.00
2017-10-01T03:43:37.138Z,10.00
2017-10-01T03:46:04.902Z,9.90
2017-10-01T03:48:32.680Z,9.90
2017-10-01T03:51:01.171Z,9.80
2017-10-01T03:53:29.291Z,9.80
2017-10-01T03:55:57.887Z,9.60
2017-10-01T03:58:26.772Z,9.60
2017-10-01T04:00:56.067Z,9.60
2017-10-01T04:03:25.279Z,9.60
2017-10-01T04:05:54.527Z,9.50
2017-10-01T04:08:22.998Z,9.40
2017-10-01T04:10:51.457Z,9.50
2017-10-01T04:13:19.924Z,9.40
2017-10-01T04:15:48.406Z,9.40
2017-10-01T04:18:16.969Z,9.30
2017-10-01T04:20:46.191Z,9.30
2017-10-01T04:23:15.428Z,9.20
2017-10-01T04:25:43.951Z,9.20
2017-10-01T04:28:13.205Z,9.20
2017-10-01T04:30:41.781Z,9.20
2017-10-01T04:33:10.320Z,9.30
2017-10-01T04:35:39.544Z,9.30
2017-10-01T04:38:08.019Z,9.20
2017-10-01T04:40:37.264Z,9.20
2017-10-01T04:43:05.728Z,9.10
2017-10-01T04:45:34.236Z,9.10
2017-10-01T04:48:02.699Z,9.00
2017-10-01T04:50:30.964Z,9.00
2017-10-01T04:52:59.254Z,9.00
2017-10-01T04:55:27.520Z,8.90
2017-10-01T04:57:55.991Z,8.90
2017-10-01T05:00:24.455Z,8.80
2017-10-01T05:02:53.699Z,8.80
2017-10-01T05:05:22.149Z,8.70
2017-10-01T05:07:51.383Z,8.70
2017-10-01T05:10:19.862Z,8.60
2017-10-01T05:12:48.318Z,8.60
2017-10-01T05:15:16.659Z,8.70
2017-10-01T05:17:45.127Z,8.60
2017-10-01T05:20:13.427Z,8.60
2017-10-01T05:22:41.882Z,8.50
2017-10-01T05:25:10.359Z,8.40
2017-10-01T05:27:38.467Z,8.40
2017-10-01T05:30:06.243Z,8.40
2017-10-01T05:32:35.473Z,8.30
2017-10-01T05:35:04.034Z,8.20
2017-10-01T05:37:33.283Z,8.30
2017-10-01T05:40:01.744Z,8.20
2017-10-01T05:42:30.224Z,8.30
2017-10-01T05:44:58.687Z,8.20
2017-10-01T05:47:27.923Z,8.20
2017-10-01T05:49:56.454Z,8.10
2017-10-01T05:52:24.940Z,8.20
2017-10-01T05:54:54.164Z,8.20
2017-10-01T05:57:22.627Z,8.10
2017-10-01T05:59:51.863Z,8.20
2017-10-01T06:02:20.335Z,8.20
2017-10-01T06:04:48.860Z,8.30
2017-10-01T06:07:17.400Z,8.20
2017-10-01T06:09:45.889Z,8.20
2017-10-01T06:12:14.358Z,8.20
2017-10-01T06:14:42.862Z,8.20
2017-10-01T06:17:11.351Z,8.30
2017-10-01T06:19:39.812Z,8.30
2017-10-01T06:22:08.291Z,8.40
2017-10-01T06:24:36.742Z,8.30
2017-10-01T06:27:05.235Z,8.40
2017-10-01T06:29:34.579Z,8.50
2017-10-01T06:32:03.062Z,8.50
2017-10-01T06:34:31.533Z,8.60
2017-10-01T06:36:59.999Z,8.70
2017-10-01T06:39:29.243Z,8.80
2017-10-01T06:41:57.716Z,8.70
2017-10-01T06:44:26.191Z,8.90
2017-10-01T06:46:54.655Z,9.00
2017-10-01T06:49:23.152Z,9.10
2017-10-01T06:51:51.674Z,9.20
2017-10-01T06:54:20.164Z,9.30
2017-10-01T06:56:48.612Z,9.30
2017-10-01T06:59:17.102Z,9.40
2017-10-01T07:01:45.563Z,9.40
2017-10-01T07:04:14.031Z,9.40
2017-10-01T07:06:43.120Z,9.50
2017-10-01T07:09:11.575Z,9.50
2017-10-01T07:11:40.090Z,9.50
2017-10-01T07:14:08.564Z,9.60
2017-10-01T07:16:37.816Z,9.80
2017-10-01T07:19:06.377Z,9.70
2017-10-01T07:21:34.855Z,9.80
2017-10-01T07:24:03.315Z,9.90
2017-10-01T07:26:32.748Z,10.10
2017-10-01T07:29:01.325Z,10.10
2017-10-01T07:31:29.779Z,10.10
2017-10-01T07:33:59.171Z,10.20
2017-10-01T07:36:28.399Z,10.30
2017-10-01T07:38:56.899Z,10.20
2017-10-01T07:41:25.114Z,10.40
2017-10-01T07:43:53.652Z,10.40
2017-10-01T07:46:21.451Z,10.50
2017-10-01T07:48:49.914Z,10.60
2017-10-01T07:51:19.247Z,10.60
2017-10-01T07:53:47.740Z,10.60
2017-10-01T07:56:16.231Z,10.60
2017-10-01T07:58:45.470Z,10.60
2017-10-01T08:01:13.959Z,10.50
2017-10-01T08:03:42.411Z,10.60
2017-10-01T08:06:11.688Z,10.70
2017-10-01T08:08:40.147Z,10.60
2017-10-01T08:11:08.644Z,10.80
2017-10-01T08:13:37.127Z,10.80
2017-10-01T08:16:05.605Z,11.00
2017-10-01T08:18:34.068Z,11.00
2017-10-01T08:21:02.531Z,11.00
2017-10-01T08:23:31.021Z,11.10
2017-10-01T08:25:59.491Z,11.10
2017-10-01T08:28:27.989Z,11.20
2017-10-01T08:30:56.507Z,11.30
2017-10-01T08:33:24.996Z,11.30
2017-10-01T08:35:53.451Z,11.40
2017-10-01T08:38:21.931Z,11.40
2017-10-01T08:40:50.387Z,11.50
2017-10-01T08:43:18.848Z,11.50
2017-10-01T08:45:48.061Z,11.70
2017-10-01T08:48:16.607Z,11.70
2017-10-01T08:50:45.106Z,11.80
2017-10-01T08:53:14.439Z,12.00
2017-10-01T08:55:42.939Z,11.90
2017-10-01T08:58:11.410Z,11.80
2017-10-01T09:00:39.884Z,11.70
2017-10-01T09:03:08.347Z,11.60
2017-10-01T09:05:37.583Z,11.70
2017-10-01T09:08:06.212Z,11.60
2017-10-01T09:10:35.099Z,11.80
2017-10-01T09:13:03.563Z,11.70
2017-10-01T09:15:32.050Z,11.80
2017-10-01T09:18:01.271Z,12.00
2017-10-01T09:20:29.744Z,12.00
2017-10-01T09:22:58.230Z,12.10
2017-10-01T09:25:26.719Z,12.20
2017-10-01T09:27:55.197Z,12.40
2017-10-01T09:30:23.680Z,12.40
2017-10-01T09:32:52.167Z,12.50
2017-10-01T09:35:21.404Z,12.70
2017-10-01T09:37:49.871Z,12.60
2017-10-01T09:40:19.114Z,12.90
2017-10-01T09:42:47.569Z,12.80
2017-10-01T09:45:16.060Z,13.00
2017-10-01T09:47:44.534Z,13.00
2017-10-01T09:50:13.016Z,13.00
2017-10-01T09:52:41.493Z,13.00
2017-10-01T09:55:09.779Z,13.20
2017-10-01T09:57:38.239Z,13.40
2017-10-01T10:00:07.566Z,13.00
2017-10-01T10:02:36.547Z,13.00
2017-10-01T10:05:05.012Z,13.10
2017-10-01T10:07:34.283Z,12.90
2017-10-01T10:10:02.744Z,12.90
2017-10-01T10:12:31.252Z,12.80
2017-10-01T10:14:59.705Z,12.80
2017-10-01T10:17:28.212Z,12.80
2017-10-01T10:19:56.680Z,13.00
2017-10-01T10:22:25.164Z,13.10
2017-10-01T10:24:53.625Z,13.10
2017-10-01T10:27:22.092Z,12.90
2017-10-01T10:29:50.676Z,12.80
2017-10-01T10:32:19.155Z,12.80
2017-10-01T10:34:47.655Z,12.70
2017-10-01T10:37:16.129Z,12.70
2017-10-01T10:39:45.529Z,12.80
2017-10-01T10:42:13.983Z,12.70
2017-10-01T10:44:43.232Z,12.60
2017-10-01T10:47:11.688Z,12.60
2017-10-01T10:49:40.151Z,12.60
2017-10-01T10:52:09.419Z,12.70
2017-10-01T10:54:37.907Z,12.60
2017-10-01T10:57:06.384Z,12.80
2017-10-01T10:59:34.856Z,13.10
2017-10-01T11:02:03.451Z,13.10
2017-10-01T11:04:31.919Z,13.10
2017-10-01T11:07:00.480Z,13.10
2017-10-01T11:09:28.937Z,13.00
2017-10-01T11:11:58.208Z,13.20
2017-10-01T11:14:26.664Z,13.10
2017-10-01T11:16:55.150Z,13.20
2017-10-01T11:19:23.606Z,13.20
2017-10-01T11:21:52.091Z,13.30
2017-10-01T11:24:20.547Z,13.20
2017-10-01T11:26:49.805Z,13.30
2017-10-01T11:29:19.091Z,13.40
2017-10-01T11:31:47.575Z,13.40
2017-10-01T11:34:16.035Z,13.70
2017-10-01T11:36:44.493Z,13.90
2017-10-01T11:39:13.736Z,13.70
2017-10-01T11:41:42.188Z,13.60
2017-10-01T11:44:10.670Z,13.60
2017-10-01T11:46:39.150Z,13.90
2017-10-01T11:49:08.387Z,13.90
2017-10-01T11:51:36.863Z,13.90
2017-10-01T11:54:05.392Z,13.90
2017-10-01T11:56:33.870Z,13.90
2017-10-01T11:59:02.365Z,13.80
2017-10-01T12:01:31.598Z,13.90
2017-10-01T12:04:00.084Z,13.80
2017-10-01T12:06:28.538Z,13.90
2017-10-01T12:08:57.770Z,13.80
2017-10-01T12:11:26.411Z,13.80
2017-10-01T12:13:54.883Z,14.10
2017-10-01T12:16:23.376Z,14.60
2017-10-01T12:18:52.564Z,15.00
2017-10-01T12:21:21.780Z,15.30
2017-10-01T12:23:51.068Z,15.70
2017-10-01T12:26:19.657Z,15.60
2017-10-01T12:28:48.155Z,15.80
2017-10-01T12:31:16.707Z,15.90
2017-10-01T12:33:45.471Z,16.10
2017-10-01T12:36:14.411Z,16.40
2017-10-01T12:38:43.565Z,16.60
2017-10-01T12:41:13.095Z,16.60
2017-10-01T12:43:41.577Z,16.60
2017-10-01T12:46:10.048Z,16.60
2017-10-01T12:48:39.334Z,16.60
2017-10-01T12:51:07.822Z,16.50
2017-10-01T12:53:36.124Z,16.90
2017-10-01T12:56:04.469Z,17.20
2017-10-01T12:58:33.306Z,17.50
2017-10-01T13:01:01.666Z,17.50
2017-10-01T13:03:30.160Z,17.40
2017-10-01T13:05:58.653Z,17.10
2017-10-01T13:08:27.397Z,17.30
2017-10-01T13:10:56.724Z,17.30
2017-10-01T13:13:24.909Z,17.40
2017-10-01T13:15:53.412Z,17.50
2017-10-01T13:18:22.360Z,16.90
2017-10-01T13:20:51.664Z,16.90
2017-10-01T13:23:21.605Z,17.00
2017-10-01T13:25:50.056Z,17.10
2017-10-01T13:28:18.652Z,17.60
2017-10-01T13:30:46.977Z,17.60
2017-10-01T13:33:15.929Z,17.70
2017-10-01T13:35:44.414Z,17.70
2017-10-01T13:38:12.741Z,17.60
2017-10-01T13:40:41.237Z,17.50
2017-10-01T13:43:10.756Z,17.70
2017-10-01T13:45:40.424Z,17.60
2017-10-01T13:48:09.684Z,17.20
2017-10-01T13:50:39.091Z,17.10
2017-10-01T13:53:07.574Z,16.70
2017-10-01T13:55:36.772Z,16.60
2017-10-01T13:58:05.482Z,16.60
2017-10-01T14:00:34.020Z,16.80
2017-10-01T14:03:03.149Z,16.90
2017-10-01T14:05:37.052Z,17.30
2017-10-01T14:08:05.969Z,17.30
2017-10-01T14:10:34.472Z,17.40
2017-10-01T14:13:04.417Z,17.40
2017-10-01T14:15:32.896Z,17.40
2017-10-01T14:18:01.384Z,17.30
2017-10-01T14:20:29.904Z,17.20
2017-10-01T14:22:58.468Z,17.10
2017-10-01T14:25:27.763Z,16.80
2017-10-01T14:27:56.261Z,16.70
2017-10-01T14:30:24.864Z,16.70
2017-10-01T14:32:54.264Z,16.90
2017-10-01T14:35:24.325Z,16.90
2017-10-01T14:37:54.458Z,17.20
2017-10-01T14:40:22.648Z,17.20
2017-10-01T14:42:51.088Z,17.20
2017-10-01T14:45:21.305Z,17.20
2017-10-01T14:47:49.958Z,17.20
2017-10-01T14:50:18.472Z,17.50
2017-10-01T14:52:46.987Z,17.50
2017-10-01T14:55:15.456Z,17.50
2017-10-01T14:57:44.837Z,17.60
2017-10-01T15:00:13.317Z,17.50
2017-10-01T15:02:41.833Z,17.40
2017-10-01T15:05:10.340Z,17.30
2017-10-01T15:07:38.856Z,17.30
2017-10-01T15:10:08.137Z,17.30
2017-10-01T15:12:37.409Z,17.30
2017-10-01T15:15:05.564Z,17.50
2017-10-01T15:17:34.828Z,17.10
2017-10-01T15:20:03.325Z,17.10
2017-10-01T15:22:31.543Z,17.00
2017-10-01T15:25:00.777Z,17.00
2017-10-01T15:27:30.162Z,16.90
2017-10-01T15:29:58.494Z,16.80
2017-10-01T15:32:27.214Z,16.90
2017-10-01T15:34:55.724Z,16.70
2017-10-01T15:37:24.208Z,16.50
2017-10-01T15:39:52.814Z,16.20
2017-10-01T15:42:21.296Z,16.10
2017-10-01T15:44:49.838Z,15.80
2017-10-01T15:47:19.015Z,15.60
2017-10-01T15:49:50.101Z,15.20
2017-10-01T15:52:18.585Z,15.10
2017-10-01T15:54:48.318Z,15.00
2017-10-01T15:57:16.972Z,15.00
2017-10-01T15:59:45.457Z,14.80
2017-10-01T16:02:14.849Z,14.70
2017-10-01T16:04:43.345Z,14.40
2017-10-01T16:07:12.634Z,14.30
2017-10-01T16:09:41.006Z,14.30
2017-10-01T16:12:10.012Z,14.10
2017-10-01T16:14:38.510Z,14.10
2017-10-01T16:17:06.693Z,14.00
2017-10-01T16:19:35.228Z,13.90
2017-10-01T16:22:04.482Z,13.70
2017-10-01T16:24:33.121Z,13.60
2017-10-01T16:27:01.621Z,13.50
2017-10-01T16:29:30.106Z,13.40
2017-10-01T16:31:59.476Z,13.30
2017-10-01T16:34:28.839Z,13.10
2017-10-01T16:36:57.009Z,13.00
2017-10-01T16:39:25.511Z,12.90
2017-10-01T16:41:53.985Z,12.80
2017-10-01T16:44:22.493Z,12.70
2017-10-01T16:46:51.781Z,12.50
2017-10-01T16:49:20.277Z,12.50
2017-10-01T16:51:50.334Z,12.50
2017-10-01T16:54:19.438Z,12.40
2017-10-01T16:56:47.926Z,12.40
2017-10-01T16:59:16.768Z,12.20
2017-10-01T17:01:45.244Z,12.20
2017-10-01T17:04:15.365Z,12.00
2017-10-01T17:06:44.655Z,11.90
2017-10-01T17:09:13.125Z,12.00
2017-10-01T17:11:41.630Z,11.90
2017-10-01T17:14:10.902Z,11.60
2017-10-01T17:16:39.476Z,11.50
2017-10-01T17:19:09.440Z,11.30
2017-10-01T17:21:38.717Z,11.30
2017-10-01T17:24:07.640Z,11.20
2017-10-01T17:26:37.105Z,11.30
2017-10-01T17:29:06.389Z,11.30
2017-10-01T17:31:34.837Z,11.40
2017-10-01T17:34:04.111Z,11.20
2017-10-01T17:36:32.579Z,11.10
2017-10-01T17:39:01.050Z,11.10
2017-10-01T17:41:29.547Z,11.00
2017-10-01T17:43:58.059Z,11.00
2017-10-01T17:46:27.289Z,10.90
2017-10-01T17:48:55.456Z,10.90
2017-10-01T17:51:24.071Z,10.90
2017-10-01T17:53:52.347Z,10.80
2017-10-01T17:56:20.827Z,10.70
2017-10-01T17:58:49.296Z,10.60
2017-10-01T18:01:17.788Z,10.50
2017-10-01T18:03:46.250Z,10.60
2017-10-01T18:06:14.744Z,10.60
2017-10-01T18:08:43.221Z,10.50
2017-10-01T18:11:11.724Z,10.40
2017-10-01T18:13:40.195Z,10.30
2017-10-01T18:16:08.674Z,10.30
2017-10-01T18:18:37.155Z,10.20
2017-10-01T18:21:05.627Z,10.20
2017-10-01T18:23:34.108Z,10.20
2017-10-01T18:26:02.581Z,10.10
2017-10-01T18:28:31.907Z,10.00
2017-10-01T18:31:00.398Z,10.00
2017-10-01T18:33:28.878Z,10.00
2017-10-01T18:35:57.351Z,10.00
2017-10-01T18:38:25.844Z,9.90
2017-10-01T18:40:54.420Z,9.80
2017-10-01T18:43:23.005Z,9.80
2017-10-01T18:45:51.498Z,9.80
2017-10-01T18:48:19.955Z,9.80
2017-10-01T18:50:48.444Z,9.70
2017-10-01T18:53:16.933Z,9.70
2017-10-01T18:55:45.495Z,9.60
2017-10-01T18:58:14.753Z,9.40
2017-10-01T19:00:43.223Z,9.40
2017-10-01T19:03:11.719Z,9.40
2017-10-01T19:05:40.206Z,9.30
2017-10-01T19:08:08.687Z,9.30
2017-10-01T19:10:37.174Z,9.40
2017-10-01T19:13:05.655Z,9.30
2017-10-01T19:15:34.502Z,9.30
2017-10-01T19:18:02.976Z,9.30
2017-10-01T19:20:31.470Z,9.40
2017-10-01T19:22:59.953Z,9.30
2017-10-01T19:25:28.452Z,9.30
2017-10-01T19:27:56.931Z,9.30
2017-10-01T19:30:25.423Z,9.30
2017-10-01T19:32:53.944Z,9.20
2017-10-01T19:35:23.182Z,9.10
2017-10-01T19:37:51.675Z,9.00
2017-10-01T19:40:20.375Z,9.10
2017-10-01T19:42:48.875Z,9.00
2017-10-01T19:45:17.382Z,8.90
2017-10-01T19:47:46.631Z,8.80
2017-10-01T19:50:15.112Z,8.70
2017-10-01T19:52:43.591Z,8.80
2017-10-01T19:55:12.099Z,8.80
2017-10-01T19:57:40.587Z,8.80
2017-10-01T20:00:08.737Z,8.70
2017-10-01T20:02:37.899Z,8.70
2017-10-01T20:05:07.162Z,8.60
2017-10-01T20:07:35.652Z,8.60
2017-10-01T20:10:04.203Z,8.70
2017-10-01T20:12:32.659Z,8.70
2017-10-01T20:15:01.159Z,8.70
2017-10-01T20:17:29.793Z,8.60
2017-10-01T20:19:59.024Z,8.60
2017-10-01T20:22:27.520Z,8.50
2017-10-01T20:24:55.983Z,8.50
2017-10-01T20:27:25.236Z,8.40
2017-10-01T20:29:53.709Z,8.30
2017-10-01T20:32:22.008Z,8.40
2017-10-01T20:34:50.475Z,8.40
2017-10-01T20:37:18.978Z,8.40
2017-10-01T20:39:47.453Z,8.40
2017-10-01T20:42:15.937Z,8.30
2017-10-01T20:44:44.465Z,8.40
2017-10-01T20:47:12.955Z,8.30
2017-10-01T20:49:41.623Z,8.40
2017-10-01T20:52:10.874Z,8.30
2017-10-01T20:54:39.375Z,8.20
2017-10-01T20:57:08.745Z,8.20
2017-10-01T20:59:37.240Z,8.20
2017-10-01T21:02:05.775Z,8.30
2017-10-01T21:04:35.021Z,8.30
2017-10-01T21:07:03.496Z,8.20
2017-10-01T21:09:31.971Z,8.40
2017-10-01T21:12:00.105Z,8.30
2017-10-01T21:14:29.359Z,8.30
2017-10-01T21:16:57.853Z,8.20
2017-10-01T21:19:26.346Z,8.10
2017-10-01T21:21:54.843Z,8.20
2017-10-01T21:24:23.315Z,8.20
2017-10-01T21:26:51.813Z,8.30
2017-10-01T21:29:21.052Z,8.40
2017-10-01T21:31:49.551Z,8.30
2017-10-01T21:34:18.093Z,8.40
2017-10-01T21:36:47.376Z,8.40
2017-10-01T21:39:15.849Z,8.30
2017-10-01T21:41:44.321Z,8.40
2017-10-01T21:44:12.770Z,8.40
2017-10-01T21:46:41.260Z,8.50
2017-10-01T21:49:09.755Z,8.50
2017-10-01T21:51:38.239Z,8.50
2017-10-01T21:54:06.711Z,8.50
2017-10-01T21:56:35.184Z,8.50
2017-10-01T21:59:03.656Z,8.60
2017-10-01T22:01:32.272Z,8.70
2017-10-01T22:04:00.747Z,8.70
2017-10-01T22:06:30.401Z,8.60
2017-10-01T22:08:59.716Z,8.60
2017-10-01T22:11:28.924Z,8.70
2017-10-01T22:13:57.426Z,8.60
2017-10-01T22:16:25.891Z,8.70
2017-10-01T22:18:54.543Z,8.60
2017-10-01T22:21:23.012Z,8.60
2017-10-01T22:23:51.621Z,8.70
2017-10-01T22:26:20.876Z,8.80
2017-10-01T22:28:49.343Z,8.70
2017-10-01T22:31:17.827Z,8.80
2017-10-01T22:33:46.287Z,8.80
2017-10-01T22:36:15.583Z,8.90
2017-10-01T22:38:44.839Z,8.90
2017-10-01T22:41:13.315Z,8.90
2017-10-01T22:43:41.799Z,8.90
2017-10-01T22:46:10.279Z,8.90
2017-10-01T22:48:38.745Z,8.90
2017-10-01T22:51:07.213Z,8.90
2017-10-01T22:53:35.720Z,9.00
2017-10-01T22:56:03.923Z,9.00
2017-10-01T22:58:32.421Z,9.00
2017-10-01T23:01:01.655Z,9.00
2017-10-01T23:03:30.136Z,9.00
2017-10-01T23:05:58.622Z,9.10
2017-10-01T23:08:27.104Z,9.10
2017-10-01T23:10:55.563Z,9.10
2017-10-01T23:13:25.212Z,9.10
2017-10-01T23:15:53.893Z,9.00
2017-10-01T23:18:22.483Z,9.10
2017-10-01T23:20:50.997Z,9.00
2017-10-01T23:23:19.476Z,9.10
2017-10-01T23:25:47.972Z,9.20
2017-10-01T23:28:16.429Z,9.30
2017-10-01T23:30:44.894Z,9.30
2017-10-01T23:33:13.363Z,9.30
2017-10-01T23:35:41.842Z,9.30
2017-10-01T23:38:10.316Z,9.20
2017-10-01T23:40:39.555Z,9.30
2017-10-01T23:43:08.190Z,9.20
2017-10-01T23:45:37.536Z,9.20
2017-10-01T23:48:06.007Z,9.10
2017-10-01T23:50:34.522Z,9.20
2017-10-01T23:53:02.986Z,9.20
2017-10-01T23:55:31.469Z,9.20
2017-10-01T23:58:00.193Z,9.30
